Time;durP1;ratioP1;P1;durP2;ratioP2;P2;SDS_P1;SDS_P2;PMS_P1;PMS_P2;Temp;Humidity;BMP_temperature;BMP_pressure;BME280_temperature;BME280_humidity;BME280_pressure;Samples;Min_cycle;Max_cycle;Signal;HPM_P1;HPM_P2
2022/07/26 00:02:00;;;;;;;16.85;3.63;;;17.80;99.90;;;;;;5066024;28;20049;-69
2022/07/26 00:04:26;;;;;;;16.77;3.72;;;17.70;99.90;;;;;;5078922;28;20033;-67
2022/07/26 00:06:52;;;;;;;16.83;3.85;;;17.70;99.90;;;;;;5049522;28;20041;-68
2022/07/26 00:09:18;;;;;;;16.67;4.05;;;17.80;99.90;;;;;;5030767;28;20052;-67
2022/07/26 00:11:44;;;;;;;13.40;4.05;;;17.70;99.90;;;;;;5047375;28;20049;-69
2022/07/26 00:14:11;;;;;;;16.20;3.80;;;17.80;99.90;;;;;;5045858;28;20571;-69
2022/07/26 00:16:37;;;;;;;18.60;3.90;;;17.80;99.90;;;;;;5049192;28;20384;-67
2022/07/26 00:19:04;;;;;;;17.45;3.97;;;17.70;99.90;;;;;;5048303;28;20056;-68
2022/07/26 00:21:30;;;;;;;17.33;4.25;;;17.80;99.90;;;;;;5029770;28;20040;-68
2022/07/26 00:23:56;;;;;;;16.33;4.40;;;17.80;99.90;;;;;;5046731;28;20510;-68
2022/07/26 00:26:22;;;;;;;14.60;4.10;;;17.80;99.90;;;;;;5064766;28;20509;-66
2022/07/26 00:28:48;;;;;;;15.82;4.47;;;17.90;99.90;;;;;;5047226;28;20063;-68
2022/07/26 00:31:14;;;;;;;19.73;3.75;;;17.90;99.90;;;;;;5046890;28;20127;-68
2022/07/26 00:33:40;;;;;;;13.52;4.47;;;17.90;99.90;;;;;;5038841;28;20032;-69
2022/07/26 00:36:06;;;;;;;16.27;4.35;;;17.90;99.90;;;;;;5034756;28;20057;-67
2022/07/26 00:38:33;;;;;;;15.38;4.30;;;17.90;99.90;;;;;;5031729;28;20061;-67
2022/07/26 00:40:59;;;;;;;21.27;4.25;;;17.90;99.90;;;;;;5081240;28;20049;-70
2022/07/26 00:43:24;;;;;;;16.15;4.07;;;17.90;99.90;;;;;;5064132;28;20041;-68
2022/07/26 00:45:50;;;;;;;18.38;4.60;;;17.90;99.90;;;;;;5030134;28;20053;-67
2022/07/26 00:48:17;;;;;;;14.05;4.15;;;17.90;99.90;;;;;;5031963;28;20037;-67
2022/07/26 00:50:44;;;;;;;16.42;4.65;;;17.90;99.90;;;;;;5031672;28;20052;-71
2022/07/26 00:53:10;;;;;;;14.23;3.97;;;17.90;99.90;;;;;;5028147;28;20436;-67
2022/07/26 00:55:36;;;;;;;14.25;3.88;;;17.90;99.90;;;;;;5063010;28;20102;-68
2022/07/26 00:58:02;;;;;;;14.20;4.32;;;17.90;99.90;;;;;;5031631;28;20536;-67
2022/07/26 01:00:29;;;;;;;23.27;4.93;;;18.00;99.90;;;;;;5031341;28;20456;-68
2022/07/26 01:02:55;;;;;;;20.98;4.57;;;18.00;99.90;;;;;;5066255;28;20388;-67
2022/07/26 01:05:22;;;;;;;15.38;4.10;;;17.90;99.90;;;;;;5048943;28;20049;-68
2022/07/26 01:07:48;;;;;;;14.48;3.97;;;18.00;99.90;;;;;;5048342;28;20071;-67
2022/07/26 01:10:14;;;;;;;14.43;4.30;;;17.90;99.90;;;;;;5048389;28;20550;-67
2022/07/26 01:12:42;;;;;;;13.40;3.63;;;18.00;99.90;;;;;;5082533;28;20123;-67
2022/07/26 01:15:10;;;;;;;15.38;4.05;;;18.00;99.90;;;;;;5048679;28;20128;-67
2022/07/26 01:17:36;;;;;;;15.35;4.20;;;18.00;99.90;;;;;;5035462;28;20067;-66
2022/07/26 01:20:03;;;;;;;13.77;4.13;;;18.10;99.90;;;;;;5050853;28;20081;-68
2022/07/26 01:22:29;;;;;;;15.48;3.70;;;18.00;99.90;;;;;;5052963;28;20045;-68
2022/07/26 01:24:55;;;;;;;14.15;3.80;;;18.10;99.90;;;;;;5052631;28;20114;-67
2022/07/26 01:27:21;;;;;;;11.55;3.78;;;18.10;99.90;;;;;;5064808;28;20556;-67
2022/07/26 01:29:48;;;;;;;12.88;3.78;;;18.10;99.90;;;;;;5060799;28;20505;-68
2022/07/26 01:32:14;;;;;;;16.33;4.53;;;18.10;99.90;;;;;;5040630;28;20045;-69
2022/07/26 01:34:39;;;;;;;17.95;4.00;;;18.20;99.90;;;;;;5036511;28;20131;-67
2022/07/26 01:37:06;;;;;;;16.42;4.25;;;18.20;99.90;;;;;;5083223;28;20372;-68
2022/07/26 01:39:31;;;;;;;14.85;3.65;;;18.20;99.90;;;;;;5035804;28;20151;-67
2022/07/26 01:42:00;;;;;;;16.98;3.60;;;18.20;99.90;;;;;;5069467;28;20542;-67
2022/07/26 01:44:26;;;;;;;17.52;3.63;;;18.20;99.90;;;;;;5069637;28;20045;-69
2022/07/26 01:46:52;;;;;;;17.13;3.92;;;18.20;99.90;;;;;;5066320;28;20053;-68
2022/07/26 01:49:18;;;;;;;18.15;4.75;;;18.20;99.90;;;;;;5065445;28;20053;-68
2022/07/26 01:51:44;;;;;;;14.30;3.83;;;18.20;99.90;;;;;;5086340;28;20049;-68
2022/07/26 01:54:10;;;;;;;10.57;3.83;;;18.10;99.90;;;;;;5068327;28;20090;-69
2022/07/26 01:56:36;;;;;;;14.27;3.97;;;18.10;99.90;;;;;;5052616;28;20673;-69
2022/07/26 01:59:03;;;;;;;13.35;4.28;;;18.10;99.90;;;;;;5033954;28;20158;-73
2022/07/26 02:01:29;;;;;;;13.40;3.85;;;18.10;99.90;;;;;;5061059;28;20044;-68
2022/07/26 02:03:55;;;;;;;12.88;3.92;;;18.10;99.90;;;;;;5035089;28;20056;-67
2022/07/26 02:06:21;;;;;;;17.60;4.20;;;18.10;99.90;;;;;;5086124;28;20045;-67
2022/07/26 02:08:47;;;;;;;10.73;3.60;;;18.10;99.90;;;;;;5080843;28;20132;-69
2022/07/26 02:11:13;;;;;;;12.80;3.95;;;18.00;99.90;;;;;;5049405;28;20516;-70
2022/07/26 02:13:41;;;;;;;11.00;4.07;;;18.10;99.90;;;;;;5052609;28;20073;-67
2022/07/26 02:16:10;;;;;;;13.82;4.55;;;18.00;99.90;;;;;;5035543;28;20049;-70
2022/07/26 02:18:39;;;;;;;15.90;4.15;;;18.00;99.90;;;;;;5032855;28;20060;-68
2022/07/26 02:21:06;;;;;;;9.77;3.45;;;18.00;99.90;;;;;;5052089;28;20490;-68
2022/07/26 02:23:33;;;;;;;15.68;3.92;;;18.00;99.90;;;;;;5054443;28;20612;-68
2022/07/26 02:26:00;;;;;;;12.27;3.97;;;17.90;99.90;;;;;;5052399;28;20049;-68
2022/07/26 02:28:27;;;;;;;14.85;4.22;;;17.90;99.90;;;;;;5050498;28;20041;-68
2022/07/26 02:30:53;;;;;;;11.77;4.18;;;17.90;99.90;;;;;;5057898;28;20051;-68
2022/07/26 02:33:20;;;;;;;16.63;4.18;;;17.90;99.90;;;;;;5038225;28;20099;-68
2022/07/26 02:35:46;;;;;;;8.63;3.55;;;17.80;99.90;;;;;;5051843;28;20049;-68
2022/07/26 02:38:14;;;;;;;13.90;4.32;;;17.80;99.90;;;;;;5049564;28;20149;-68
2022/07/26 02:40:41;;;;;;;11.80;4.00;;;17.80;99.90;;;;;;5036401;28;20136;-68
2022/07/26 02:43:09;;;;;;;13.20;3.75;;;17.80;99.90;;;;;;5051868;28;20048;-68
2022/07/26 02:45:35;;;;;;;12.43;4.25;;;17.80;99.90;;;;;;5051795;28;20072;-68
2022/07/26 02:48:01;;;;;;;12.60;4.35;;;17.80;99.90;;;;;;5051235;28;20118;-68
2022/07/26 02:50:28;;;;;;;11.90;3.80;;;17.80;99.90;;;;;;5046664;28;20399;-68
2022/07/26 02:52:55;;;;;;;11.38;4.10;;;17.80;99.90;;;;;;5061926;28;20126;-67
2022/07/26 02:55:23;;;;;;;8.40;4.10;;;17.80;99.90;;;;;;5035247;28;20122;-68
2022/07/26 02:57:50;;;;;;;18.08;4.63;;;17.80;99.90;;;;;;5034509;28;20093;-69
2022/07/26 03:00:19;;;;;;;11.85;4.20;;;17.80;99.90;;;;;;5050076;28;20045;-68
2022/07/26 03:02:47;;;;;;;16.55;4.68;;;17.80;99.90;;;;;;5047296;28;20036;-70
2022/07/26 03:05:13;;;;;;;15.45;5.25;;;17.80;99.90;;;;;;5050046;28;20063;-72
2022/07/26 03:07:40;;;;;;;13.57;4.65;;;17.70;99.90;;;;;;5034705;28;20045;-70
2022/07/26 03:10:06;;;;;;;9.20;3.60;;;17.50;99.90;;;;;;5018288;28;20130;-70
2022/07/26 03:12:32;;;;;;;11.32;3.90;;;17.50;99.90;;;;;;5051383;28;20079;-69
2022/07/26 03:14:59;;;;;;;5.03;3.33;;;17.40;99.90;;;;;;5051027;28;20087;-69
2022/07/26 03:17:25;;;;;;;8.93;3.65;;;17.20;99.90;;;;;;5082475;28;20578;-69
2022/07/26 03:19:51;;;;;;;8.93;3.80;;;17.20;99.90;;;;;;5033694;28;20044;-69
2022/07/26 03:22:17;;;;;;;9.73;4.07;;;17.20;99.90;;;;;;5033959;28;20131;-69
2022/07/26 03:24:43;;;;;;;11.40;4.10;;;17.20;99.90;;;;;;5050477;28;20044;-75
2022/07/26 03:27:09;;;;;;;10.55;3.70;;;17.20;99.90;;;;;;5032416;28;20045;-70
2022/07/26 03:29:35;;;;;;;9.60;3.70;;;17.20;99.90;;;;;;5066378;28;20049;-69
2022/07/26 03:32:01;;;;;;;13.30;3.90;;;17.20;99.90;;;;;;5050559;28;20107;-71
2022/07/26 03:34:27;;;;;;;12.15;3.80;;;17.20;99.90;;;;;;5050606;28;20091;-68
2022/07/26 03:36:52;;;;;;;10.70;4.07;;;17.20;99.90;;;;;;5050131;28;20464;-74
2022/07/26 03:39:18;;;;;;;10.85;3.90;;;17.20;99.90;;;;;;5046129;28;20056;-68
2022/07/26 03:41:44;;;;;;;11.65;3.38;;;17.20;99.90;;;;;;5034226;28;20399;-68
2022/07/26 03:44:10;;;;;;;10.20;3.30;;;17.20;99.90;;;;;;5050158;28;20049;-70
2022/07/26 03:46:36;;;;;;;11.40;3.13;;;17.20;99.90;;;;;;5066273;28;20557;-69
2022/07/26 03:49:02;;;;;;;8.32;3.20;;;17.10;99.90;;;;;;5047166;28;20591;-70
2022/07/26 03:51:28;;;;;;;9.45;3.40;;;17.10;99.90;;;;;;5031937;28;20452;-68
2022/07/26 03:53:54;;;;;;;13.73;3.10;;;17.10;99.90;;;;;;5049191;28;20064;-67
2022/07/26 03:56:30;;;;;;;7.97;2.97;;;17.10;99.90;;;;;;5083596;28;20071;-69
2022/07/26 03:59:05;;;;;;;14.82;3.38;;;17.10;99.90;;;;;;5030115;28;20380;-68
2022/07/26 04:01:33;;;;;;;13.70;3.45;;;17.10;99.90;;;;;;5033408;28;20491;-68
2022/07/26 04:04:00;;;;;;;14.27;3.50;;;17.10;99.90;;;;;;5033461;28;20156;-67
2022/07/26 04:06:26;;;;;;;11.90;3.00;;;17.10;99.90;;;;;;5033838;28;20095;-68
2022/07/26 04:08:53;;;;;;;8.65;2.72;;;17.10;99.90;;;;;;5047831;28;20036;-67
2022/07/26 04:11:19;;;;;;;8.68;2.80;;;17.10;99.90;;;;;;5052426;28;20037;-68
2022/07/26 04:13:45;;;;;;;10.63;2.53;;;17.00;99.90;;;;;;5053167;28;20049;-68
2022/07/26 04:16:11;;;;;;;14.10;2.70;;;17.00;99.90;;;;;;5050418;28;20064;-68
2022/07/26 04:18:37;;;;;;;8.77;2.20;;;17.00;99.90;;;;;;5049748;28;20037;-68
2022/07/26 04:21:03;;;;;;;8.45;1.90;;;17.00;99.90;;;;;;5047618;28;20152;-68
2022/07/26 04:23:29;;;;;;;14.65;2.30;;;17.00;99.90;;;;;;5030657;28;20079;-70
2022/07/26 04:25:55;;;;;;;7.30;1.83;;;17.00;99.90;;;;;;5055570;28;20052;-68
2022/07/26 04:28:21;;;;;;;9.52;1.98;;;17.00;99.90;;;;;;5035875;28;20055;-68
2022/07/26 04:30:47;;;;;;;8.60;2.00;;;17.00;99.90;;;;;;5046613;28;20045;-68
2022/07/26 04:33:13;;;;;;;7.00;1.48;;;17.00;99.90;;;;;;5060470;28;20173;-72
2022/07/26 04:35:38;;;;;;;8.68;1.67;;;16.90;99.90;;;;;;5050379;28;20051;-68
2022/07/26 04:38:04;;;;;;;9.85;1.80;;;16.90;99.90;;;;;;5048540;28;20060;-69
2022/07/26 04:40:33;;;;;;;9.32;1.55;;;17.00;99.90;;;;;;5063427;28;20052;-71
2022/07/26 04:43:00;;;;;;;7.95;1.55;;;17.00;99.90;;;;;;5031545;28;20127;-68
2022/07/26 04:45:26;;;;;;;8.90;1.55;;;16.90;99.90;;;;;;5043151;28;20387;-68
2022/07/26 04:47:52;;;;;;;7.38;1.30;;;17.00;99.90;;;;;;5012857;28;20128;-68
2022/07/26 04:50:19;;;;;;;6.93;1.23;;;17.00;99.90;;;;;;5058400;28;20128;-69
2022/07/26 04:52:46;;;;;;;4.45;1.02;;;17.00;99.90;;;;;;5032563;28;20115;-73
2022/07/26 04:55:12;;;;;;;9.13;1.73;;;17.00;99.90;;;;;;5040257;28;20080;-69
2022/07/26 04:57:38;;;;;;;7.28;1.02;;;17.10;99.90;;;;;;5053455;28;20033;-69
2022/07/26 05:00:06;;;;;;;6.90;1.20;;;17.10;99.90;;;;;;5021149;28;20700;-69
2022/07/26 05:02:32;;;;;;;4.63;1.08;;;17.10;99.90;;;;;;5052694;28;20702;-68
2022/07/26 05:04:58;;;;;;;5.68;1.23;;;17.10;99.90;;;;;;5087084;28;20051;-67
2022/07/26 05:07:24;;;;;;;6.35;1.30;;;17.10;99.90;;;;;;5035733;28;20049;-67
2022/07/26 05:09:50;;;;;;;6.28;0.90;;;17.10;99.90;;;;;;5087231;28;20128;-69
2022/07/26 05:12:16;;;;;;;5.78;1.02;;;17.10;99.90;;;;;;5068736;28;20506;-68
2022/07/26 05:14:43;;;;;;;10.18;1.38;;;17.10;99.90;;;;;;5037429;28;20053;-67
2022/07/26 05:17:10;;;;;;;3.90;1.02;;;17.10;99.90;;;;;;5036549;28;20135;-67
2022/07/26 05:19:36;;;;;;;5.97;1.30;;;17.10;99.90;;;;;;5053329;28;20071;-68
2022/07/26 05:22:02;;;;;;;3.15;0.90;;;17.00;99.90;;;;;;5033939;28;20495;-70
2022/07/26 05:24:29;;;;;;;7.35;1.00;;;16.90;99.90;;;;;;5049545;28;20044;-68
2022/07/26 05:26:55;;;;;;;5.35;1.05;;;17.00;99.90;;;;;;5047492;28;20045;-72
2022/07/26 05:29:21;;;;;;;7.10;1.33;;;16.90;99.90;;;;;;5050898;28;20075;-68
2022/07/26 05:31:47;;;;;;;4.85;1.20;;;16.90;99.90;;;;;;5086706;28;20033;-68
2022/07/26 05:34:13;;;;;;;5.97;1.20;;;16.90;99.90;;;;;;5063154;28;20047;-72
2022/07/26 05:36:39;;;;;;;7.03;1.13;;;16.90;99.90;;;;;;5054409;28;20370;-72
2022/07/26 05:39:06;;;;;;;5.80;1.20;;;16.90;99.90;;;;;;5052768;28;20048;-71
2022/07/26 05:41:32;;;;;;;4.93;0.95;;;16.90;99.90;;;;;;5051770;28;20055;-68
2022/07/26 05:43:58;;;;;;;5.70;1.10;;;17.00;99.90;;;;;;5062030;28;20040;-68
2022/07/26 05:46:24;;;;;;;8.10;1.10;;;17.00;99.90;;;;;;5052470;28;20041;-68
2022/07/26 05:48:50;;;;;;;6.90;0.90;;;17.10;99.90;;;;;;5034730;28;20055;-71
2022/07/26 05:51:17;;;;;;;6.15;0.88;;;17.00;99.90;;;;;;5053926;28;20132;-68
2022/07/26 05:53:43;;;;;;;5.55;0.80;;;17.10;99.90;;;;;;5036436;28;20071;-71
2022/07/26 05:56:09;;;;;;;7.32;1.02;;;17.20;99.90;;;;;;5052793;28;20052;-68
2022/07/26 05:58:38;;;;;;;4.07;1.02;;;17.20;99.90;;;;;;5052390;28;20045;-68
2022/07/26 06:01:04;;;;;;;2.80;0.68;;;17.30;99.90;;;;;;5044955;28;20041;-69
2022/07/26 06:03:31;;;;;;;4.15;1.38;;;17.30;99.90;;;;;;5061968;28;20106;-67
2022/07/26 06:05:58;;;;;;;6.75;0.85;;;17.40;99.90;;;;;;5052785;28;20103;-70
2022/07/26 06:08:25;;;;;;;5.25;0.95;;;17.40;99.90;;;;;;5068436;28;20073;-69
2022/07/26 06:10:53;;;;;;;3.40;0.70;;;17.30;99.90;;;;;;5056951;28;20052;-70
2022/07/26 06:13:19;;;;;;;4.50;0.80;;;17.10;99.90;;;;;;5052941;28;20041;-68
2022/07/26 06:15:46;;;;;;;5.68;0.90;;;17.00;99.90;;;;;;5035559;28;20112;-69
2022/07/26 06:18:13;;;;;;;4.47;0.80;;;16.90;99.90;;;;;;5085665;28;20037;-68
2022/07/26 06:20:40;;;;;;;2.72;1.20;;;16.90;99.90;;;;;;5038801;28;20036;-69
2022/07/26 06:23:07;;;;;;;4.22;0.93;;;16.90;99.90;;;;;;5034090;28;20096;-69
2022/07/26 06:25:33;;;;;;;4.93;1.08;;;17.00;99.90;;;;;;5053902;28;20111;-68
2022/07/26 06:28:04;;;;;;;4.28;1.00;;;17.10;99.90;;;;;;5059054;28;20120;-68
2022/07/26 06:30:30;;;;;;;6.88;1.17;;;17.20;99.90;;;;;;5051990;28;20045;-68
2022/07/26 06:32:57;;;;;;;6.13;1.20;;;17.20;99.90;;;;;;5034976;28;20471;-68
2022/07/26 06:35:23;;;;;;;6.82;1.30;;;17.30;99.90;;;;;;5050491;28;20183;-68
2022/07/26 06:37:49;;;;;;;4.10;0.85;;;17.30;99.90;;;;;;5049675;28;20057;-67
2022/07/26 06:40:15;;;;;;;7.97;1.08;;;17.40;99.90;;;;;;5052394;28;20163;-68
2022/07/26 06:42:41;;;;;;;4.93;1.20;;;17.40;99.90;;;;;;5080341;28;20175;-68
2022/07/26 06:45:07;;;;;;;4.35;1.00;;;17.50;99.90;;;;;;5043009;28;20045;-67
2022/07/26 06:47:34;;;;;;;3.47;0.73;;;17.50;99.90;;;;;;5035163;28;20390;-71
2022/07/26 06:50:00;;;;;;;5.25;1.05;;;17.50;99.90;;;;;;5035498;28;20081;-67
2022/07/26 06:52:26;;;;;;;3.97;0.65;;;17.70;99.90;;;;;;5032489;28;20185;-67
2022/07/26 06:54:52;;;;;;;6.88;1.00;;;17.90;99.90;;;;;;5031678;28;20052;-68
2022/07/26 06:57:18;;;;;;;3.42;0.82;;;18.00;99.90;;;;;;5034692;28;20041;-68
2022/07/26 06:59:44;;;;;;;5.53;0.90;;;17.90;99.90;;;;;;5015528;28;20044;-71
2022/07/26 07:02:10;;;;;;;6.35;0.93;;;17.90;99.90;;;;;;5051886;28;20348;-69
2022/07/26 07:04:36;;;;;;;4.20;0.82;;;17.90;99.90;;;;;;5085187;28;20033;-68
2022/07/26 07:07:03;;;;;;;6.70;1.00;;;17.90;99.90;;;;;;5067377;28;20057;-68
2022/07/26 07:09:31;;;;;;;4.95;0.90;;;17.90;99.90;;;;;;5034115;28;20078;-68
2022/07/26 07:11:57;;;;;;;7.22;1.00;;;17.90;99.90;;;;;;5051574;28;20133;-68
2022/07/26 07:14:23;;;;;;;6.13;0.90;;;18.00;99.90;;;;;;5032864;28;20041;-68
2022/07/26 07:16:49;;;;;;;2.50;0.77;;;18.20;99.90;;;;;;5050219;28;20063;-68
2022/07/26 07:19:15;;;;;;;5.90;1.00;;;18.20;99.90;;;;;;5054730;28;20511;-68
2022/07/26 07:21:41;;;;;;;7.70;1.20;;;18.30;99.90;;;;;;5051110;28;20069;-68
2022/07/26 07:24:07;;;;;;;5.93;1.00;;;18.30;99.90;;;;;;5084998;28;20044;-67
2022/07/26 07:26:33;;;;;;;3.97;0.65;;;18.40;99.90;;;;;;5050961;28;20469;-67
2022/07/26 07:29:01;;;;;;;5.45;0.98;;;18.30;99.90;;;;;;5041445;28;20049;-68
2022/07/26 07:31:27;;;;;;;3.20;0.60;;;18.30;99.90;;;;;;5045956;28;20143;-68
2022/07/26 07:33:54;;;;;;;7.30;1.48;;;18.40;99.90;;;;;;5092761;28;20052;-67
2022/07/26 07:36:20;;;;;;;5.88;0.60;;;18.50;99.90;;;;;;5055824;28;20122;-67
2022/07/26 07:38:47;;;;;;;3.65;1.10;;;18.70;99.90;;;;;;5083109;28;20404;-67
2022/07/26 07:41:13;;;;;;;5.53;0.77;;;18.70;99.90;;;;;;5051125;28;20520;-71
2022/07/26 07:43:39;;;;;;;3.35;0.75;;;18.80;99.90;;;;;;5034153;28;20128;-67
2022/07/26 07:46:06;;;;;;;5.00;0.70;;;19.00;99.90;;;;;;5028533;28;20044;-67
2022/07/26 07:48:31;;;;;;;3.95;0.70;;;19.00;99.90;;;;;;5032231;28;20040;-68
2022/07/26 07:50:58;;;;;;;3.58;0.80;;;19.40;99.90;;;;;;5049227;28;20068;-67
2022/07/26 07:53:23;;;;;;;6.45;1.10;;;19.60;99.90;;;;;;5031637;28;20041;-68
2022/07/26 07:55:49;;;;;;;4.35;0.77;;;19.90;99.90;;;;;;5049040;28;20057;-67
2022/07/26 07:58:16;;;;;;;4.38;0.57;;;19.90;99.90;;;;;;5081268;28;20048;-68
2022/07/26 08:00:42;;;;;;;2.78;0.60;;;20.10;99.90;;;;;;5046757;28;20071;-68
2022/07/26 08:03:08;;;;;;;4.00;0.88;;;20.40;99.90;;;;;;5049771;28;20349;-67
2022/07/26 08:05:34;;;;;;;5.57;0.80;;;20.30;99.90;;;;;;5032414;28;20087;-68
2022/07/26 08:08:02;;;;;;;5.53;1.13;;;20.10;99.90;;;;;;5015271;28;20037;-68
2022/07/26 08:10:28;;;;;;;6.00;0.80;;;20.10;99.90;;;;;;5066126;28;20501;-69
2022/07/26 08:12:54;;;;;;;4.68;0.85;;;20.00;99.90;;;;;;5033074;28;20053;-68
2022/07/26 08:15:22;;;;;;;3.85;0.80;;;19.80;99.90;;;;;;5033895;28;20127;-68
2022/07/26 08:17:48;;;;;;;6.38;1.02;;;19.50;99.90;;;;;;4997095;28;20124;-69
2022/07/26 08:20:15;;;;;;;5.97;0.82;;;19.30;99.90;;;;;;5033342;28;20111;-69
2022/07/26 08:22:41;;;;;;;6.15;1.02;;;19.40;99.90;;;;;;5048815;28;20154;-68
2022/07/26 08:25:07;;;;;;;4.22;0.90;;;19.50;99.90;;;;;;5032797;28;20061;-67
2022/07/26 08:27:33;;;;;;;6.95;1.10;;;19.50;99.90;;;;;;5048629;28;20049;-70
2022/07/26 08:29:59;;;;;;;9.35;1.10;;;19.50;99.90;;;;;;5048611;28;20391;-68
2022/07/26 08:32:25;;;;;;;6.15;1.27;;;19.70;99.90;;;;;;5083761;28;20052;-68
2022/07/26 08:34:51;;;;;;;6.18;0.77;;;19.70;99.90;;;;;;5080235;28;20163;-68
2022/07/26 08:37:17;;;;;;;6.75;0.90;;;19.80;99.90;;;;;;5032129;28;20092;-69
2022/07/26 08:39:45;;;;;;;5.05;1.15;;;19.80;99.90;;;;;;5049557;28;20041;-69
2022/07/26 08:42:16;;;;;;;6.25;1.15;;;20.00;99.90;;;;;;5054049;28;20048;-67
2022/07/26 08:44:47;;;;;;;4.53;0.90;;;20.30;99.90;;;;;;5036372;28;20049;-66
2022/07/26 08:47:14;;;;;;;4.75;0.68;;;20.30;99.90;;;;;;5032338;28;20045;-69
2022/07/26 08:49:41;;;;;;;4.22;0.70;;;20.50;99.90;;;;;;5046155;28;20504;-68
2022/07/26 08:52:08;;;;;;;3.72;0.90;;;20.60;99.90;;;;;;5049090;28;20095;-70
2022/07/26 08:54:35;;;;;;;3.60;0.80;;;20.90;99.90;;;;;;5045690;28;20498;-74
2022/07/26 08:57:01;;;;;;;4.28;0.82;;;21.00;99.90;;;;;;5048363;28;20045;-70
2022/07/26 08:59:29;;;;;;;5.88;1.02;;;21.10;99.90;;;;;;5080705;28;20414;-70
2022/07/26 09:01:57;;;;;;;4.78;0.70;;;21.40;99.90;;;;;;5061211;28;20037;-74
2022/07/26 09:04:29;;;;;;;2.72;0.93;;;21.30;99.90;;;;;;5027645;28;20045;-71
2022/07/26 09:07:07;;;;;;;4.68;0.98;;;21.10;99.90;;;;;;5055470;28;20076;-70
2022/07/26 09:09:55;;;;;;;5.60;0.98;;;21.30;99.90;;;;;;5029026;28;20076;-69
2022/07/26 09:12:22;;;;;;;4.63;0.80;;;21.60;99.90;;;;;;5050052;28;20044;-71
2022/07/26 09:14:48;;;;;;;4.57;0.95;;;21.60;99.90;;;;;;5060159;28;20522;-70
2022/07/26 09:17:17;;;;;;;2.95;0.75;;;21.70;99.90;;;;;;5045589;28;20160;-69
2022/07/26 09:19:44;;;;;;;4.25;1.00;;;21.40;99.90;;;;;;5052028;28;20036;-74
2022/07/26 09:22:16;;;;;;;4.13;1.00;;;21.20;99.90;;;;;;5049648;28;20052;-71
2022/07/26 09:24:46;;;;;;;3.35;1.10;;;21.00;99.90;;;;;;5046711;28;20052;-74
2022/07/26 09:27:15;;;;;;;3.63;1.40;;;20.80;99.90;;;;;;5046213;28;20471;-73
2022/07/26 09:29:52;;;;;;;4.78;0.77;;;20.80;99.90;;;;;;5051964;28;20133;-70
2022/07/26 09:32:21;;;;;;;7.75;1.00;;;20.60;99.90;;;;;;5083276;28;20127;-70
2022/07/26 09:34:56;;;;;;;4.80;1.10;;;20.70;99.90;;;;;;5060350;28;20043;-70
2022/07/26 09:37:34;;;;;;;6.15;1.30;;;20.60;99.90;;;;;;5033963;28;20064;-70
2022/07/26 09:40:05;;;;;;;5.78;1.20;;;20.60;99.90;;;;;;5036811;28;20049;-69
2022/07/26 09:42:31;;;;;;;7.38;1.00;;;20.50;99.90;;;;;;5036135;28;20083;-71
2022/07/26 09:44:58;;;;;;;5.90;0.98;;;20.00;99.90;;;;;;5036603;28;20055;-69
2022/07/26 09:47:38;;;;;;;4.20;0.98;;;19.90;99.90;;;;;;5037053;28;20059;-69
2022/07/26 09:50:15;;;;;;;3.42;0.90;;;19.80;99.90;;;;;;5066228;28;20071;-71
2022/07/26 09:53:14;;;;;;;6.70;1.40;;;19.60;99.90;;;;;;5053078;28;20073;-69
2022/07/26 09:55:43;;;;;;;11.13;1.77;;;19.50;99.90;;;;;;5085455;28;20032;-69
2022/07/26 09:58:12;;;;;;;6.45;1.17;;;19.70;99.90;;;;;;5066965;28;20540;-69
2022/07/26 10:00:38;;;;;;;7.55;1.20;;;19.70;99.90;;;;;;5083953;28;20041;-69
2022/07/26 10:03:05;;;;;;;7.32;1.25;;;19.90;99.90;;;;;;5048870;28;20386;-69
2022/07/26 10:05:35;;;;;;;7.53;1.50;;;20.30;99.90;;;;;;5051484;28;20483;-69
2022/07/26 10:08:01;;;;;;;6.05;1.25;;;20.40;99.90;;;;;;5048839;28;20045;-69
2022/07/26 10:10:59;;;;;;;4.57;1.15;;;20.40;99.90;;;;;;5034914;28;20048;-69
2022/07/26 10:13:27;;;;;;;7.72;1.30;;;20.60;99.90;;;;;;5052102;28;20121;-69
2022/07/26 10:15:55;;;;;;;7.20;1.30;;;20.80;99.90;;;;;;5034806;28;20052;-71
2022/07/26 10:18:36;;;;;;;11.75;1.75;;;20.80;99.90;;;;;;5047173;28;20041;-72
2022/07/26 10:21:22;;;;;;;9.15;1.70;;;20.80;99.90;;;;;;5051843;28;20487;-70
2022/07/26 10:23:55;;;;;;;11.60;2.00;;;20.80;99.90;;;;;;5052219;28;20040;-71
2022/07/26 10:26:30;;;;;;;13.52;2.50;;;20.70;99.90;;;;;;5034441;28;20044;-72
2022/07/26 10:29:16;;;;;;;8.38;1.85;;;20.60;99.90;;;;;;5048426;28;20041;-70
2022/07/26 10:31:43;;;;;;;11.77;2.22;;;20.40;99.90;;;;;;5049629;28;20114;-71
2022/07/26 10:34:09;;;;;;;9.80;1.90;;;20.60;99.90;;;;;;5052597;28;20584;-71
2022/07/26 10:36:37;;;;;;;7.30;1.65;;;20.70;99.90;;;;;;5051786;28;20390;-72
2022/07/26 10:39:11;;;;;;;11.18;1.88;;;20.70;99.90;;;;;;5080151;28;20454;-70
2022/07/26 10:41:43;;;;;;;12.60;1.88;;;20.60;99.90;;;;;;5035448;28;20430;-70
2022/07/26 10:44:27;;;;;;;7.57;1.70;;;20.70;99.90;;;;;;5051654;28;20041;-71
2022/07/26 10:46:57;;;;;;;11.93;2.45;;;20.80;99.90;;;;;;5084680;28;20045;-71
2022/07/26 10:49:32;;;;;;;9.82;2.10;;;20.90;99.90;;;;;;5048876;28;20394;-71
2022/07/26 10:52:17;;;;;;;10.20;2.00;;;20.70;99.90;;;;;;5042725;28;20127;-70
2022/07/26 10:54:58;;;;;;;9.88;1.65;;;20.90;99.90;;;;;;5032896;28;20033;-72
2022/07/26 10:57:27;;;;;;;8.88;1.58;;;20.90;99.90;;;;;;5051137;28;20045;-71
2022/07/26 10:59:56;;;;;;;13.20;1.80;;;20.80;99.90;;;;;;5081580;28;20048;-72
2022/07/26 11:02:32;;;;;;;8.50;2.03;;;20.60;99.90;;;;;;5049844;28;20079;-70
2022/07/26 11:05:15;;;;;;;7.20;1.70;;;20.60;99.90;;;;;;5028352;28;20037;-72
2022/07/26 11:07:58;;;;;;;8.23;2.00;;;20.80;99.90;;;;;;5051004;28;20045;-68
2022/07/26 11:10:45;;;;;;;7.88;1.70;;;21.20;99.90;;;;;;5082238;28;20053;-68
2022/07/26 11:13:19;;;;;;;9.93;1.77;;;21.20;99.90;;;;;;5030535;28;20044;-67
2022/07/26 11:15:48;;;;;;;7.40;1.75;;;21.70;99.90;;;;;;5048259;28;20052;-67
2022/07/26 11:18:16;;;;;;;8.15;1.63;;;22.00;99.90;;;;;;5084459;28;20088;-68
2022/07/26 11:20:44;;;;;;;9.30;1.60;;;22.30;99.90;;;;;;5034815;28;20044;-67
2022/07/26 11:23:25;;;;;;;7.70;1.33;;;22.40;99.90;;;;;;5051479;28;20128;-67
2022/07/26 11:26:02;;;;;;;;;;;22.40;99.90;;;;;;5077977;28;20045;-69
2022/07/26 11:28:28;;;;;;;5.95;1.33;;;22.30;99.90;;;;;;5080263;28;19921;-68
2022/07/26 11:31:00;;;;;;;7.45;1.35;;;22.40;99.90;;;;;;5081450;28;20052;-68
2022/07/26 11:33:42;;;;;;;5.18;1.10;;;22.40;99.90;;;;;;5032954;28;20124;-67
2022/07/26 11:36:07;;;;;;;;;;;22.00;98.80;;;;;;5051401;28;20387;-69
2022/07/26 11:38:53;;;;;;;4.45;1.13;;;22.00;99.90;;;;;;5047126;28;19921;-69
2022/07/26 11:41:19;;;;;;;6.88;1.33;;;21.80;95.50;;;;;;5048611;28;20045;-68
2022/07/26 11:43:45;;;;;;;8.85;1.27;;;21.80;99.10;;;;;;5031592;28;20098;-69
2022/07/26 11:46:11;;;;;;;6.38;1.23;;;22.00;99.20;;;;;;5050035;28;20044;-68
2022/07/26 11:48:47;;;;;;;7.88;1.35;;;22.00;97.50;;;;;;5031434;28;20489;-68
2022/07/26 11:51:19;;;;;;;7.07;1.23;;;22.00;95.90;;;;;;5027581;28;20053;-72
2022/07/26 11:53:46;;;;;;;5.22;0.90;;;21.90;95.60;;;;;;5050621;28;20033;-67
2022/07/26 11:56:17;;;;;;;6.03;1.13;;;21.80;95.30;;;;;;5049077;28;20044;-67
2022/07/26 11:58:46;;;;;;;5.45;1.25;;;21.80;94.70;;;;;;5063987;28;20041;-71
2022/07/26 12:01:15;;;;;;;6.20;1.05;;;21.70;93.70;;;;;;5032794;28;20439;-67
2022/07/26 12:03:43;;;;;;;4.82;1.05;;;21.80;94.30;;;;;;5050358;28;20044;-67
2022/07/26 12:06:13;;;;;;;5.63;1.20;;;21.60;93.80;;;;;;5046256;28;20056;-69
2022/07/26 12:08:50;;;;;;;3.00;0.95;;;21.80;94.60;;;;;;5054881;28;20040;-67
2022/07/26 12:11:17;;;;;;;7.05;1.17;;;22.00;90.70;;;;;;5048883;28;20507;-67
2022/07/26 12:14:00;;;;;;;3.50;1.17;;;22.10;93.60;;;;;;5050411;28;20048;-71
2022/07/26 12:16:45;;;;;;;3.13;1.00;;;21.90;90.30;;;;;;5047352;28;20370;-67
2022/07/26 12:19:17;;;;;;;3.25;0.60;;;21.50;89.60;;;;;;5050491;28;20080;-68
2022/07/26 12:21:45;;;;;;;5.57;0.90;;;21.40;89.50;;;;;;5083959;28;20063;-68
2022/07/26 12:24:32;;;;;;;6.47;1.10;;;21.30;90.30;;;;;;5083550;28;20049;-68
2022/07/26 12:27:06;;;;;;;2.28;0.90;;;21.50;90.90;;;;;;5043590;28;20045;-68
2022/07/26 12:29:35;;;;;;;5.20;1.30;;;21.40;90.00;;;;;;5037716;28;20070;-67
2022/07/26 12:32:19;;;;;;;3.10;0.80;;;21.40;90.60;;;;;;5049219;28;20048;-67
2022/07/26 12:34:59;;;;;;;3.70;0.80;;;21.70;90.50;;;;;;5046847;28;20041;-68
2022/07/26 12:37:31;;;;;;;2.83;0.82;;;21.90;89.10;;;;;;5077474;28;20116;-68
2022/07/26 12:40:15;;;;;;;3.50;0.88;;;22.10;90.50;;;;;;5078843;28;20645;-67
2022/07/26 12:42:50;;;;;;;3.75;0.93;;;22.10;86.70;;;;;;5060634;28;20128;-67
2022/07/26 12:45:23;;;;;;;4.78;0.80;;;22.10;88.00;;;;;;5049753;28;20522;-68
2022/07/26 12:47:51;;;;;;;3.95;0.95;;;21.90;85.80;;;;;;5076854;28;20057;-67
2022/07/26 12:50:20;;;;;;;5.10;0.80;;;22.10;87.70;;;;;;5047505;28;20051;-68